Hauptseite
METAR-TAF:

METAR-TAF

Flughäfen :

Fliegerhorst Wittmundhafen

Wittmund, Deutschland

Breite: 53-33N, Länge: 007-40E, Höhe: 8 m

Beobachtung

Neuester Wetterbericht von vor 59 Minuten, um 19:20 UTC
Wind 14 kt aus Süd
Temperatur 14°C
Luftfeuchtigkeit 82%
Luftdruck 1004 hPa
Sichtweite: 7000 m

METAR: ETNT 241920Z AUTO 19014KT 7000 // ////// 14/11 Q1004 ///

Zeit: 22:19 (20:19 UTC)


TAF: fehlend

Wetterbeobachtungen und Prognosen von mehr als 4000 Flughäfen (METAR und TAF Bericht).

Die verfügbaren Stationen werden durch gelbe und rote Markierungen auf der Karte dargestellt.

Führen Sie die Maus auf sie, um den Namen der Station zu sehen.

Darauf klicken, um die Beobachtung von Wetterbeobachtungen und Prognosen zu sehen.

Um die Karte zu ändern : klicken Sie auf den grünen Tasten mit einem schwarzen Kreuz Zum Vergrößern, auf den grünen Button mit einem Gedankenstrich zu verkleinern, oder auf die grünen Pfeile für benachbarte Karten.


METAR-TAF: